Time;durP1;ratioP1;P1;durP2;ratioP2;P2;SDS_P1;SDS_P2;PMS_P1;PMS_P2;Temp;Humidity;BMP_temperature;BMP_pressure;BME280_temperature;BME280_humidity;BME280_pressure;Samples;Min_cycle;Max_cycle;Signal;HPM_P1;HPM_P2
2022/09/27 00:00:44;;;;;;;18.90;16.33;;;;;;;10.73;99.05;98057.81;5097788;28;20487;-64
2022/09/27 00:03:12;;;;;;;15.50;13.90;;;;;;;10.76;98.37;98053.91;5102597;28;20503;-65
2022/09/27 00:05:41;;;;;;;16.17;14.47;;;;;;;10.81;98.01;98059.50;5101838;28;20485;-65
2022/09/27 00:08:08;;;;;;;17.40;15.70;;;;;;;10.82;97.99;98052.31;5102220;28;20479;-65
2022/09/27 00:10:35;;;;;;;17.73;15.33;;;;;;;10.79;98.37;98052.69;5101977;28;20505;-65
2022/09/27 00:13:01;;;;;;;16.67;14.30;;;;;;;10.68;98.86;98052.22;5102180;28;20443;-66
2022/09/27 00:15:28;;;;;;;17.70;14.13;;;;;;;10.71;98.74;98053.66;5101615;28;20470;-66
2022/09/27 00:17:55;;;;;;;20.27;13.20;;;;;;;10.79;98.70;98058.06;5101224;28;20451;-66
2022/09/27 00:20:22;;;;;;;16.63;13.53;;;;;;;10.83;98.54;98064.63;5101781;28;20959;-65
2022/09/27 00:22:50;;;;;;;12.40;10.70;;;;;;;10.84;98.24;98061.78;5102400;28;20459;-66
2022/09/27 00:25:17;;;;;;;12.03;10.83;;;;;;;10.79;98.58;98052.69;5102595;28;20534;-65
2022/09/27 00:27:44;;;;;;;12.20;10.00;;;;;;;10.77;98.47;98065.44;5102531;28;20511;-65
2022/09/27 00:30:12;;;;;;;10.80;9.07;;;;;;;10.78;98.35;98059.91;5101811;28;20535;-64
2022/09/27 00:32:40;;;;;;;11.33;9.50;;;;;;;10.84;98.49;98050.28;5102281;28;20475;-64
2022/09/27 00:35:07;;;;;;;11.40;9.07;;;;;;;10.84;98.19;98048.41;5102529;28;20443;-64
2022/09/27 00:37:34;;;;;;;11.27;9.70;;;;;;;10.78;98.36;98051.88;5102181;28;20459;-64
2022/09/27 00:40:02;;;;;;;9.20;8.30;;;;;;;10.84;98.20;98056.44;5103069;28;20419;-64
2022/09/27 00:42:29;;;;;;;11.10;8.40;;;;;;;10.83;98.13;98057.47;5101534;28;20507;-64
2022/09/27 00:45:06;;;;;;;9.60;8.70;;;;;;;10.82;98.52;98055.00;5102046;28;20512;-64
2022/09/27 00:47:41;;;;;;;9.00;8.07;;;;;;;10.76;98.73;98059.25;5101573;28;20459;-64
2022/09/27 00:50:13;;;;;;;10.00;8.03;;;;;;;10.76;99.08;98053.09;5102134;28;20467;-64
2022/09/27 00:52:44;;;;;;;9.60;8.70;;;;;;;10.65;99.14;98057.13;5101427;28;20432;-64
2022/09/27 00:55:16;;;;;;;8.10;7.00;;;;;;;10.70;99.33;98055.53;5100865;28;20470;-64
2022/09/27 00:57:44;;;;;;;8.90;7.80;;;;;;;10.79;98.97;98053.53;5101526;28;20538;-64
2022/09/27 01:00:14;;;;;;;10.03;8.60;;;;;;;10.79;99.17;98052.69;5099906;28;20444;-64
2022/09/27 01:02:44;;;;;;;9.53;7.67;;;;;;;10.75;99.09;98049.59;5101765;28;20562;-64
2022/09/27 01:05:12;;;;;;;9.93;8.63;;;;;;;10.81;99.08;98050.66;5100920;28;20439;-63
2022/09/27 01:07:39;;;;;;;8.93;8.03;;;;;;;10.81;98.86;98046.13;5100984;28;20483;-64
2022/09/27 01:10:07;;;;;;;11.63;9.20;;;;;;;10.80;98.75;98049.00;5100376;28;20479;-64
2022/09/27 01:12:43;;;;;;;10.00;7.90;;;;;;;10.86;99.04;98051.72;5099925;28;20494;-64
2022/09/27 01:15:15;;;;;;;9.60;7.83;;;;;;;10.83;99.29;98051.28;5099855;28;20481;-64
2022/09/27 01:17:51;;;;;;;12.80;8.00;;;;;;;10.81;99.21;98056.81;5100096;28;20452;-64
2022/09/27 01:20:52;;;;;;;9.17;8.27;;;;;;;10.84;99.19;98058.28;5099908;28;20473;-64
2022/09/27 01:23:40;;;;;;;9.37;7.50;;;;;;;10.86;99.23;98048.22;5101561;28;20446;-64
2022/09/27 01:26:13;;;;;;;10.00;7.93;;;;;;;10.81;99.06;98054.16;5100269;28;20479;-64
2022/09/27 01:28:51;;;;;;;10.03;8.67;;;;;;;10.78;99.69;98051.88;5101007;28;20416;-64
2022/09/27 01:31:23;;;;;;;10.50;8.80;;;;;;;10.83;99.63;98054.81;5099947;28;20544;-64
2022/09/27 01:33:56;;;;;;;11.00;8.57;;;;;;;10.83;99.16;98049.44;5101081;28;20443;-64
2022/09/27 01:36:28;;;;;;;12.97;10.10;;;;;;;10.82;99.08;98049.66;5099759;28;20475;-64
2022/09/27 01:39:08;;;;;;;13.90;9.63;;;;;;;10.88;99.09;98047.00;5101206;28;20514;-65
2022/09/27 01:41:38;;;;;;;14.53;9.60;;;;;;;10.84;99.33;98050.28;5099905;28;20483;-65
2022/09/27 01:44:08;;;;;;;15.43;9.33;;;;;;;10.77;99.02;98047.56;5100966;28;20432;-64
2022/09/27 01:46:38;;;;;;;12.27;8.50;;;;;;;10.77;98.91;98050.22;5099402;28;20997;-65
2022/09/27 01:49:09;;;;;;;18.63;10.17;;;;;;;10.79;98.67;98050.84;5100032;28;20819;-65
2022/09/27 01:51:40;;;;;;;14.93;9.30;;;;;;;10.84;98.40;98050.28;5099582;28;20487;-65
2022/09/27 01:54:07;;;;;;;10.77;8.23;;;;;;;10.72;98.71;98042.78;5100540;28;20507;-65
2022/09/27 01:56:37;;;;;;;11.83;8.13;;;;;;;10.78;97.99;98051.03;5099383;28;20468;-63
2022/09/27 01:59:08;;;;;;;12.87;9.10;;;;;;;10.76;97.90;98043.22;5100801;28;20865;-66
2022/09/27 02:01:37;;;;;;;12.00;8.20;;;;;;;10.83;97.60;98046.78;5098871;28;20474;-66
2022/09/27 02:04:05;;;;;;;16.33;8.27;;;;;;;10.82;97.57;98055.00;5100220;28;20431;-64
2022/09/27 02:06:35;;;;;;;12.30;8.10;;;;;;;10.73;97.65;98054.31;5099324;28;21027;-64
2022/09/27 02:09:05;;;;;;;13.40;8.20;;;;;;;10.85;97.20;98052.75;5100074;28;20431;-64
2022/09/27 02:11:33;;;;;;;14.80;7.83;;;;;;;10.80;97.11;98062.34;5099047;28;20487;-64
2022/09/27 02:14:03;;;;;;;11.17;7.23;;;;;;;10.74;97.19;98059.47;5100131;28;20925;-64
2022/09/27 02:16:40;;;;;;;14.70;6.93;;;;;;;10.72;96.78;98052.66;5098626;28;20536;-64
2022/09/27 02:19:10;;;;;;;7.97;5.87;;;;;;;10.61;97.25;98059.38;5099249;28;20435;-64
2022/09/27 02:21:41;;;;;;;9.43;5.40;;;;;;;10.68;96.99;98057.56;5099143;28;20505;-65
2022/09/27 02:24:10;;;;;;;12.00;5.70;;;;;;;10.54;97.38;98053.97;5098641;28;20507;-65
2022/09/27 02:26:41;;;;;;;8.30;6.33;;;;;;;10.60;97.26;98062.22;5092367;28;20479;-63
2022/09/27 02:29:10;;;;;;;8.57;5.90;;;;;;;10.62;96.83;98060.19;5099757;28;20530;-64
2022/09/27 02:31:38;;;;;;;12.37;5.77;;;;;;;10.69;96.69;98064.56;5098204;28;20503;-64
2022/09/27 02:34:07;;;;;;;9.97;5.50;;;;;;;10.66;96.36;98072.13;5099663;28;20462;-65
2022/09/27 02:36:34;;;;;;;9.03;5.20;;;;;;;10.65;96.76;98070.50;5098423;28;20483;-64
2022/09/27 02:39:01;;;;;;;7.43;4.90;;;;;;;10.65;96.68;98068.63;5100294;28;20436;-64
2022/09/27 02:41:28;;;;;;;10.87;5.10;;;;;;;10.65;96.49;98070.50;5099409;28;20474;-65
2022/09/27 02:43:57;;;;;;;10.77;4.80;;;;;;;10.51;97.08;98078.41;5099704;28;20438;-64
2022/09/27 02:46:33;;;;;;;10.23;4.73;;;;;;;10.59;97.01;98071.25;5099119;28;20550;-65
2022/09/27 02:49:10;;;;;;;9.23;4.73;;;;;;;10.50;97.27;98076.78;5099498;28;20465;-65
2022/09/27 02:51:49;;;;;;;7.50;4.10;;;;;;;10.46;97.55;98072.81;5099081;28;20548;-65
2022/09/27 02:54:20;;;;;;;8.27;4.53;;;;;;;10.48;97.37;98072.63;5098715;28;20440;-65
2022/09/27 02:56:54;;;;;;;5.37;3.70;;;;;;;10.50;97.47;98076.78;5098719;28;20471;-65
2022/09/27 02:59:28;;;;;;;6.80;4.50;;;;;;;10.50;97.14;98076.78;5098584;28;20442;-65
2022/09/27 03:02:06;;;;;;;9.47;3.70;;;;;;;10.45;97.69;98078.34;5098350;28;20475;-64
2022/09/27 03:04:37;;;;;;;5.73;3.40;;;;;;;10.52;97.30;98077.41;5079732;28;20486;-65
2022/09/27 03:07:04;;;;;;;5.87;3.60;;;;;;;10.52;97.49;98082.75;5082414;28;20586;-64
2022/09/27 03:09:41;;;;;;;9.50;4.00;;;;;;;10.63;97.32;98076.03;5098584;28;20464;-65
2022/09/27 03:12:08;;;;;;;7.23;3.50;;;;;;;10.56;96.86;98083.19;5097990;28;20906;-65
2022/09/27 03:14:34;;;;;;;6.73;4.20;;;;;;;10.54;97.26;98079.88;5098398;28;20454;-65
2022/09/27 03:17:01;;;;;;;4.20;3.50;;;;;;;10.66;97.04;98083.66;5098260;28;20505;-65
2022/09/27 03:19:28;;;;;;;6.17;4.23;;;;;;;10.61;96.99;98074.59;5098663;28;20439;-65
2022/09/27 03:21:56;;;;;;;6.23;3.67;;;;;;;10.49;97.22;98082.31;5097937;28;20479;-65
2022/09/27 03:24:23;;;;;;;6.57;4.07;;;;;;;10.66;97.00;98081.00;5099080;28;20447;-65
2022/09/27 03:26:50;;;;;;;8.03;3.97;;;;;;;10.62;96.83;98087.72;5098155;28;20472;-65
2022/09/27 03:29:17;;;;;;;9.23;4.13;;;;;;;10.51;96.97;98088.28;5099288;28;20427;-65
2022/09/27 03:31:43;;;;;;;8.10;3.73;;;;;;;10.53;97.08;98091.56;5097605;28;20488;-66
2022/09/27 03:34:10;;;;;;;7.90;5.33;;;;;;;10.43;97.01;98086.56;5099175;28;20926;-66
2022/09/27 03:36:37;;;;;;;9.83;5.37;;;;;;;10.41;96.90;98093.13;5100248;28;20479;-65
2022/09/27 03:39:05;;;;;;;6.63;4.70;;;;;;;10.43;96.73;98089.22;5103223;28;20448;-65
2022/09/27 03:41:34;;;;;;;10.67;5.27;;;;;;;10.41;96.76;98093.94;5101906;28;20565;-65
2022/09/27 03:44:01;;;;;;;9.60;4.80;;;;;;;10.43;96.53;98091.88;5103094;28;20435;-65
2022/09/27 03:46:28;;;;;;;10.27;5.40;;;;;;;10.45;96.56;98095.22;5101749;28;20472;-66
2022/09/27 03:48:55;;;;;;;7.83;4.90;;;;;;;10.35;96.55;98090.19;5101795;28;20440;-66
2022/09/27 03:51:22;;;;;;;9.23;4.80;;;;;;;10.45;96.60;98094.38;5102352;28;20532;-65
2022/09/27 03:53:49;;;;;;;7.43;4.57;;;;;;;10.27;97.20;98100.97;5102394;28;20461;-65
2022/09/27 03:56:17;;;;;;;8.67;4.40;;;;;;;10.55;96.49;98097.53;5102391;28;20473;-65
2022/09/27 03:58:44;;;;;;;9.30;5.50;;;;;;;10.44;96.63;98098.09;5102743;28;20451;-65
2022/09/27 04:01:11;;;;;;;6.30;3.70;;;;;;;10.40;96.31;98097.66;5099865;28;20550;-65
2022/09/27 04:03:38;;;;;;;5.90;3.93;;;;;;;10.29;96.48;98098.94;5100249;28;20489;-66
2022/09/27 04:06:05;;;;;;;8.77;3.80;;;;;;;10.26;96.48;98098.50;5101884;28;20479;-65
2022/09/27 04:08:32;;;;;;;5.43;4.00;;;;;;;10.30;96.97;98100.59;5099767;28;20832;-65
2022/09/27 04:10:59;;;;;;;6.70;4.43;;;;;;;10.17;96.76;98101.31;5102217;28;20475;-65
2022/09/27 04:13:27;;;;;;;8.30;3.30;;;;;;;10.14;96.59;98100.88;5102183;28;20444;-65
2022/09/27 04:15:54;;;;;;;7.43;4.30;;;;;;;10.01;97.02;98103.41;5101001;28;20496;-65
2022/09/27 04:18:21;;;;;;;10.93;4.23;;;;;;;10.04;97.00;98103.84;5101507;28;20451;-65
2022/09/27 04:20:48;;;;;;;6.60;3.47;;;;;;;9.94;96.94;98100.66;5101692;28;20516;-65
2022/09/27 04:23:15;;;;;;;8.10;3.87;;;;;;;10.01;96.82;98106.88;5102194;28;20456;-65
2022/09/27 04:25:42;;;;;;;11.57;3.30;;;;;;;10.05;96.52;98102.84;5100156;28;20483;-65
2022/09/27 04:28:09;;;;;;;7.40;3.70;;;;;;;9.96;96.49;98103.97;5100402;28;20451;-65
2022/09/27 04:30:37;;;;;;;10.03;3.93;;;;;;;10.03;96.31;98107.53;5100471;28;20540;-65
2022/09/27 04:33:03;;;;;;;6.00;3.87;;;;;;;9.99;96.04;98112.41;5102388;28;20451;-71
2022/09/27 04:38:15;;;;;;;10.63;3.47;;;;;;;9.94;96.67;98114.81;5096818;28;20987;-67
2022/09/27 04:40:44;;;;;;;4.60;3.40;;;;;;;9.91;96.58;98114.38;5101136;28;20459;-68
2022/09/27 04:43:11;;;;;;;7.43;3.40;;;;;;;9.82;97.08;98111.00;5102042;28;20493;-68
2022/09/27 04:45:39;;;;;;;5.13;2.97;;;;;;;9.94;96.98;98124.69;5100926;28;20495;-68
2022/09/27 04:48:06;;;;;;;9.73;3.17;;;;;;;9.96;96.64;98123.50;5099872;28;20946;-68
2022/09/27 04:50:32;;;;;;;3.57;2.97;;;;;;;10.05;96.66;98121.53;5100863;28;20467;-68
2022/09/27 04:53:00;;;;;;;7.20;2.90;;;;;;;10.04;95.94;98127.06;5101464;28;20578;-68
2022/09/27 04:55:27;;;;;;;5.20;2.63;;;;;;;10.06;96.23;98127.69;5091627;28;20468;-68
2022/09/27 04:57:53;;;;;;;6.27;2.93;;;;;;;9.87;96.09;98134.47;5080928;28;20516;-69
2022/09/27 05:00:21;;;;;;;9.30;4.00;;;;;;;9.94;96.49;98135.34;5096657;28;20481;-68
2022/09/27 05:02:49;;;;;;;5.67;3.50;;;;;;;9.75;96.97;98137.59;5100056;28;20479;-68
2022/09/27 05:05:16;;;;;;;5.87;3.33;;;;;;;9.90;96.90;98136.75;5099732;28;20475;-68
2022/09/27 05:07:43;;;;;;;5.53;2.90;;;;;;;9.92;97.08;98143.53;5099693;28;20482;-68
2022/09/27 05:10:10;;;;;;;4.90;2.80;;;;;;;9.92;96.58;98153.41;5099549;28;20447;-68
2022/09/27 05:12:37;;;;;;;4.77;3.20;;;;;;;9.95;96.55;98145.03;5100237;28;20564;-68
2022/09/27 05:15:04;;;;;;;7.03;3.30;;;;;;;9.91;96.70;98155.25;5100199;28;20833;-68
2022/09/27 05:17:30;;;;;;;6.57;3.10;;;;;;;9.98;97.12;98163.31;5099120;28;20528;-68
2022/09/27 05:19:59;;;;;;;4.63;2.77;;;;;;;9.87;97.02;98169.16;5101234;28;20444;-68
2022/09/27 05:22:25;;;;;;;9.07;3.20;;;;;;;9.70;97.22;98171.19;5101446;28;20475;-70
2022/09/27 05:24:52;;;;;;;5.27;2.80;;;;;;;9.67;97.33;98161.75;5101020;28;20439;-69
2022/09/27 05:27:19;;;;;;;4.80;2.60;;;;;;;9.74;97.29;98165.31;5099959;28;20507;-70
2022/09/27 05:29:46;;;;;;;6.23;3.10;;;;;;;9.66;97.06;98169.94;5099231;28;20458;-70
2022/09/27 05:32:13;;;;;;;7.30;3.20;;;;;;;9.70;96.64;98169.34;5099642;28;20483;-70
2022/09/27 05:34:40;;;;;;;10.63;3.90;;;;;;;9.67;96.75;98171.56;5100645;28;20428;-70
2022/09/27 05:37:08;;;;;;;4.97;3.40;;;;;;;9.71;96.77;98178.19;5099734;28;20549;-70
2022/09/27 05:39:35;;;;;;;12.40;3.00;;;;;;;9.64;96.76;98180.78;5100776;28;20449;-70
2022/09/27 05:42:03;;;;;;;3.43;2.80;;;;;;;9.78;96.14;98187.13;5100035;28;20471;-70
2022/09/27 05:44:30;;;;;;;4.73;3.47;;;;;;;9.67;96.54;98187.56;5079890;28;20439;-70
2022/09/27 05:46:58;;;;;;;4.30;3.10;;;;;;;9.72;96.62;98198.53;5078878;28;20480;-70
2022/09/27 05:49:25;;;;;;;7.20;3.00;;;;;;;9.83;95.69;98187.38;5095935;28;20570;-70
2022/09/27 05:51:54;;;;;;;5.20;2.43;;;;;;;9.95;95.35;98204.56;5074707;28;20488;-70
2022/09/27 05:54:23;;;;;;;7.67;3.33;;;;;;;9.76;95.56;98197.16;5107722;28;20443;-68
2022/09/27 05:56:50;;;;;;;7.13;2.90;;;;;;;9.98;95.01;98203.34;5099257;28;20508;-70
2022/09/27 05:59:16;;;;;;;4.23;3.40;;;;;;;9.89;95.21;98196.47;5110678;28;20443;-70
2022/09/27 06:01:43;;;;;;;6.93;3.23;;;;;;;9.82;94.48;98200.91;5119550;28;20466;-70
2022/09/27 06:04:10;;;;;;;4.50;4.10;;;;;;;9.78;93.69;98201.28;5116330;28;20445;-70
2022/09/27 06:06:37;;;;;;;4.63;2.80;;;;;;;9.87;93.34;98206.53;5098822;28;20512;-70
2022/09/27 06:09:04;;;;;;;4.20;2.87;;;;;;;10.01;92.97;98197.66;5100053;28;20770;-70
2022/09/27 06:11:33;;;;;;;4.23;3.03;;;;;;;9.80;93.36;98195.75;5110362;28;20478;-69
2022/09/27 06:14:00;;;;;;;7.63;3.50;;;;;;;9.93;92.96;98206.59;5079612;28;20459;-70
2022/09/27 06:16:27;;;;;;;4.53;2.93;;;;;;;9.88;93.03;98206.34;5078638;28;20464;-70
2022/09/27 06:18:53;;;;;;;7.27;3.13;;;;;;;9.96;92.84;98210.72;5078979;28;20436;-71
2022/09/27 06:21:21;;;;;;;4.63;2.80;;;;;;;10.03;92.44;98206.28;5077859;28;20468;-70
2022/09/27 06:23:48;;;;;;;9.00;3.17;;;;;;;10.02;92.25;98215.34;5079845;28;20555;-70
2022/09/27 06:26:15;;;;;;;5.60;2.80;;;;;;;10.01;92.39;98216.34;5079642;28;20489;-70
2022/09/27 06:28:43;;;;;;;8.53;2.60;;;;;;;10.07;91.89;98214.75;5099158;28;20451;-70
2022/09/27 06:31:11;;;;;;;4.43;2.40;;;;;;;10.07;91.08;98214.75;5097837;28;20479;-71
2022/09/27 06:33:38;;;;;;;6.27;2.43;;;;;;;10.03;91.22;98216.16;5100280;28;20502;-70
2022/09/27 06:36:06;;;;;;;4.37;2.40;;;;;;;9.95;91.17;98225.09;5098624;28;20471;-71
2022/09/27 06:38:33;;;;;;;5.37;2.00;;;;;;;9.86;91.58;98219.03;5099280;28;20450;-70
2022/09/27 06:41:01;;;;;;;5.00;2.80;;;;;;;9.71;91.76;98235.06;5098739;28;20463;-70
2022/09/27 06:43:29;;;;;;;5.67;1.97;;;;;;;9.76;91.51;98235.34;5099314;28;20453;-70
2022/09/27 06:46:00;;;;;;;6.63;2.53;;;;;;;9.89;91.38;98241.84;5098300;28;20546;-70
2022/09/27 06:48:26;;;;;;;4.37;2.50;;;;;;;9.76;91.31;98243.34;5098598;28;20444;-70
2022/09/27 06:50:56;;;;;;;6.63;2.83;;;;;;;9.90;90.63;98251.53;5116419;28;20475;-69
2022/09/27 06:53:23;;;;;;;4.53;2.00;;;;;;;9.93;90.10;98245.78;5120173;28;20431;-68
2022/09/27 06:55:50;;;;;;;5.60;2.47;;;;;;;9.90;89.67;98246.19;5103534;28;20501;-70
2022/09/27 07:01:04;;;;;;;4.70;1.90;;;;;;;10.37;87.88;98252.94;5096639;28;20509;-69
2022/09/27 07:03:31;;;;;;;4.23;1.43;;;;;;;10.55;86.35;98260.53;5098550;28;20516;-70
2022/09/27 07:06:00;;;;;;;2.10;1.57;;;;;;;10.59;85.64;98253.81;5081527;28;20571;-70
2022/09/27 07:08:27;;;;;;;4.60;2.10;;;;;;;10.98;85.19;98257.03;5078606;28;20452;-69
2022/09/27 07:10:55;;;;;;;4.83;1.47;;;;;;;11.01;84.54;98260.16;5088123;28;20509;-70
2022/09/27 07:13:22;;;;;;;3.00;1.70;;;;;;;11.12;83.19;98256.94;5106024;28;20543;-69
2022/09/27 07:15:49;;;;;;;3.63;2.57;;;;;;;11.43;82.26;98262.97;5097170;28;20839;-70
2022/09/27 07:18:17;;;;;;;1.83;1.60;;;;;;;10.82;83.03;98271.50;5098353;28;20456;-69
2022/09/27 07:20:44;;;;;;;2.23;1.67;;;;;;;12.36;80.30;98263.47;5097266;28;20475;-69
2022/09/27 07:23:15;;;;;;;3.20;1.33;;;;;;;13.31;73.35;98267.94;5099209;28;20424;-70
2022/09/27 07:25:41;;;;;;;2.73;1.50;;;;;;;13.60;73.59;98271.28;5097816;28;20543;-71
2022/09/27 07:28:11;;;;;;;2.33;0.90;;;;;;;13.82;71.57;98277.19;5097969;28;20479;-70
2022/09/27 07:30:38;;;;;;;2.13;1.30;;;;;;;12.81;74.18;98281.72;5096956;28;20475;-71
2022/09/27 07:33:06;;;;;;;4.73;1.77;;;;;;;12.96;74.79;98284.25;5098022;28;21384;-70
2022/09/27 07:35:35;;;;;;;1.87;1.00;;;;;;;14.08;70.60;98277.16;5093482;28;20461;-69
2022/09/27 07:38:04;;;;;;;4.20;1.60;;;;;;;13.55;71.84;98294.19;5077692;28;20460;-69
2022/09/27 07:40:30;;;;;;;2.40;1.67;;;;;;;12.82;74.58;98294.13;5080361;28;20471;-71
2022/09/27 07:42:58;;;;;;;2.40;1.70;;;;;;;11.48;79.59;98295.31;5101214;28;20450;-70
2022/09/27 07:45:25;;;;;;;3.73;1.47;;;;;;;11.57;80.36;98294.13;5117403;28;20447;-69
2022/09/27 07:47:52;;;;;;;8.73;1.70;;;;;;;11.57;81.28;98302.16;5117796;28;20458;-69
2022/09/27 07:50:19;;;;;;;2.87;1.33;;;;;;;11.17;81.58;98309.06;5100209;28;20470;-70
2022/09/27 07:52:50;;;;;;;3.50;2.00;;;;;;;11.23;82.34;98298.41;5097585;28;20491;-69
2022/09/27 07:55:17;;;;;;;2.37;1.70;;;;;;;11.22;82.56;98315.47;5097381;28;20451;-70
2022/09/27 07:57:44;;;;;;;1.70;1.50;;;;;;;11.26;82.16;98307.88;5097171;28;20460;-70
2022/09/27 08:00:13;;;;;;;4.80;1.77;;;;;;;11.30;82.50;98311.81;5096768;28;20511;-70
2022/09/27 08:02:40;;;;;;;1.60;1.40;;;;;;;11.67;80.60;98308.00;5097983;28;20486;-70
2022/09/27 08:05:07;;;;;;;2.50;2.10;;;;;;;11.43;81.09;98316.47;5097106;28;20934;-70
2022/09/27 08:07:34;;;;;;;12.97;2.50;;;;;;;11.54;81.74;98323.94;5097352;28;20494;-69
2022/09/27 08:10:03;;;;;;;5.33;2.70;;;;;;;11.66;80.86;98314.38;5098382;28;20436;-70
2022/09/27 08:12:29;;;;;;;3.97;1.97;;;;;;;11.83;80.17;98317.56;5113136;28;20478;-69
2022/09/27 08:15:00;;;;;;;6.67;2.23;;;;;;;11.67;81.20;98328.59;5117841;28;20465;-70
2022/09/27 08:17:27;;;;;;;3.20;1.70;;;;;;;11.44;82.08;98332.34;5116921;28;20470;-69
2022/09/27 08:19:54;;;;;;;6.13;2.43;;;;;;;11.22;84.12;98328.03;5118134;28;20448;-71
2022/09/27 08:22:21;;;;;;;2.70;2.07;;;;;;;11.69;83.00;98335.41;5117394;28;20470;-71
2022/09/27 08:24:48;;;;;;;9.47;2.87;;;;;;;11.80;82.54;98339.38;5122541;28;20926;-71
2022/09/27 08:27:16;;;;;;;6.17;2.57;;;;;;;12.00;80.71;98341.41;5121232;28;20515;-70
2022/09/27 08:29:43;;;;;;;2.40;2.20;;;;;;;11.96;80.77;98332.09;5122623;28;20479;-70
2022/09/27 08:32:10;;;;;;;3.67;2.20;;;;;;;12.29;78.32;98344.84;5121474;28;20924;-72
2022/09/27 08:34:37;;;;;;;4.87;2.23;;;;;;;11.86;80.26;98343.16;5122532;28;20601;-72
2022/09/27 08:37:04;;;;;;;5.23;2.33;;;;;;;11.75;80.36;98341.84;5119229;28;20482;-71
2022/09/27 08:39:31;;;;;;;6.00;1.83;;;;;;;11.63;81.16;98352.25;5122692;28;20434;-69
2022/09/27 08:42:04;;;;;;;6.20;2.97;;;;;;;11.75;81.62;98346.34;5120816;28;20542;-71
2022/09/27 08:44:38;;;;;;;4.83;2.00;;;;;;;11.34;81.95;98353.25;5122711;28;20431;-70
2022/09/27 08:47:10;;;;;;;2.00;1.80;;;;;;;11.58;80.73;98349.31;5120506;28;20477;-72
2022/09/27 08:49:39;;;;;;;5.00;1.90;;;;;;;11.53;81.69;98356.25;5121608;28;20437;-72
2022/09/27 08:52:08;;;;;;;6.00;2.20;;;;;;;11.41;81.32;98350.63;5120765;28;20507;-70
2022/09/27 08:54:37;;;;;;;5.43;3.00;;;;;;;11.44;81.55;98366.28;5117820;28;20447;-69
2022/09/27 08:57:06;;;;;;;5.80;1.83;;;;;;;11.37;81.59;98355.53;5099092;28;20478;-70
2022/09/27 08:59:39;;;;;;;3.80;2.10;;;;;;;11.64;81.81;98353.06;5101629;28;20427;-72
2022/09/27 09:02:14;;;;;;;7.13;2.37;;;;;;;11.74;81.21;98356.25;5100056;28;20869;-71
2022/09/27 09:04:41;;;;;;;6.77;2.83;;;;;;;12.07;79.92;98361.03;5100047;28;20451;-71
2022/09/27 09:07:15;;;;;;;7.07;2.83;;;;;;;12.01;79.54;98349.25;5099991;28;20483;-71
2022/09/27 09:09:48;;;;;;;6.77;2.30;;;;;;;12.61;77.40;98354.06;5102861;28;20991;-71
2022/09/27 09:15:29;;;;;;;13.50;2.83;;;;;;;12.27;77.73;98353.09;5101887;28;20493;-71
2022/09/27 09:18:08;;;;;;;5.13;2.20;;;;;;;12.30;78.70;98367.97;5101218;28;20447;-69
2022/09/27 09:20:52;;;;;;;4.83;2.03;;;;;;;12.59;77.62;98346.22;5100448;28;20478;-73
2022/09/27 09:23:30;;;;;;;8.13;2.43;;;;;;;13.10;74.98;98357.53;5101824;28;20436;-71
2022/09/27 09:26:01;;;;;;;4.93;2.20;;;;;;;12.35;75.72;98358.28;5099836;28;20529;-70
2022/09/27 09:28:40;;;;;;;5.20;1.80;;;;;;;12.51;76.75;98358.97;5101006;28;20504;-70
2022/09/27 09:31:13;;;;;;;9.03;2.47;;;;;;;12.20;77.13;98360.25;5099112;28;21148;-69
2022/09/27 09:33:43;;;;;;;3.03;2.10;;;;;;;12.40;76.50;98357.69;5099788;28;20475;-70
2022/09/27 09:36:14;;;;;;;7.80;2.70;;;;;;;12.52;74.85;98364.16;5099736;28;20467;-71
2022/09/27 09:38:44;;;;;;;3.40;1.60;;;;;;;12.98;72.25;98360.81;5100298;28;20435;-72
2022/09/27 09:41:16;;;;;;;6.60;1.40;;;;;;;12.82;71.59;98353.13;5099091;28;20482;-72
2022/09/27 09:43:47;;;;;;;5.43;1.23;;;;;;;12.29;72.63;98353.75;5101160;28;20443;-72
2022/09/27 09:46:21;;;;;;;1.93;0.90;;;;;;;12.02;72.68;98352.75;5098742;28;20472;-70
2022/09/27 09:48:49;;;;;;;5.13;2.63;;;;;;;13.06;69.50;98359.78;5099516;28;20865;-71
2022/09/27 09:51:21;;;;;;;2.50;1.27;;;;;;;14.30;65.62;98354.81;5099126;28;21264;-71
2022/09/27 09:53:53;;;;;;;4.93;1.50;;;;;;;15.72;60.61;98351.94;5100243;28;20467;-72
2022/09/27 09:56:23;;;;;;;11.57;1.20;;;;;;;17.46;55.29;98348.03;5098212;28;20479;-70
2022/09/27 09:58:54;;;;;;;4.40;1.03;;;;;;;18.58;51.83;98354.38;5100018;28;20455;-72
2022/09/27 10:01:25;;;;;;;3.37;1.03;;;;;;;18.63;51.02;98340.94;5098556;28;20467;-70
2022/09/27 10:03:52;;;;;;;2.73;0.90;;;;;;;17.29;55.14;98339.78;5099063;28;20440;-71
2022/09/27 10:06:19;;;;;;;4.03;1.00;;;;;;;18.05;52.41;98340.00;5098952;28;20502;-70
2022/09/27 10:08:46;;;;;;;2.90;1.17;;;;;;;16.69;55.99;98334.38;5113379;28;20459;-70
2022/09/27 10:11:20;;;;;;;2.90;0.60;;;;;;;15.94;59.82;98343.50;5118898;28;20909;-71
2022/09/27 10:13:47;;;;;;;2.40;0.80;;;;;;;17.17;57.73;98341.63;5120137;28;20574;-71
2022/09/27 10:16:16;;;;;;;2.83;0.80;;;;;;;16.10;57.61;98345.59;5119668;28;20499;-71
2022/09/27 10:18:44;;;;;;;2.93;0.63;;;;;;;15.39;59.74;98336.06;5119194;28;20454;-72
2022/09/27 10:21:13;;;;;;;1.10;0.70;;;;;;;14.27;63.16;98349.88;5119718;28;21140;-72
2022/09/27 10:24:05;;;;;;;4.03;1.23;;;;;;;13.29;67.49;98358.59;5105325;28;21082;-71
2022/09/27 10:26:35;;;;;;;1.70;0.80;;;;;;;12.51;72.44;98348.25;5098102;28;20468;-71
2022/09/27 10:29:21;;;;;;;1.13;0.60;;;;;;;11.42;73.92;98353.13;5100025;28;20447;-70
2022/09/27 10:31:49;;;;;;;2.23;0.47;;;;;;;10.83;76.18;98362.22;5098208;28;21378;-69
2022/09/27 10:34:31;;;;;;;0.80;0.50;;;;;;;10.78;77.77;98361.94;5099761;28;20534;-71
2022/09/27 10:37:17;;;;;;;1.10;0.60;;;;;;;11.03;78.96;98362.41;5100125;28;20479;-71
2022/09/27 10:39:44;;;;;;;1.00;0.60;;;;;;;11.27;78.82;98363.88;5119539;28;20953;-72
2022/09/27 10:42:32;;;;;;;1.67;0.63;;;;;;;11.24;79.59;98366.94;5118732;28;21069;-71
2022/09/27 10:44:59;;;;;;;0.90;0.70;;;;;;;11.21;80.20;98371.84;5108439;28;20474;-72
2022/09/27 10:47:27;;;;;;;1.30;0.83;;;;;;;10.89;80.51;98369.47;5096398;28;20477;-71
2022/09/27 10:50:05;;;;;;;2.43;0.90;;;;;;;11.00;81.07;98368.13;5099242;28;20511;-72
2022/09/27 10:52:32;;;;;;;2.53;0.80;;;;;;;10.91;80.83;98358.56;5098321;28;20495;-70
2022/09/27 10:55:01;;;;;;;2.30;0.90;;;;;;;11.02;79.67;98354.56;5098729;28;20447;-72
2022/09/27 10:57:29;;;;;;;1.13;0.60;;;;;;;11.10;78.92;98365.16;5098178;28;20464;-70
2022/09/27 10:59:57;;;;;;;3.63;1.57;;;;;;;10.88;78.85;98359.78;5110612;28;20518;-70
2022/09/27 11:02:27;;;;;;;1.77;0.90;;;;;;;11.93;76.68;98353.94;5111375;28;20854;-69
2022/09/27 11:05:07;;;;;;;2.13;1.13;;;;;;;13.04;72.25;98359.16;5099596;28;20469;-71
2022/09/27 11:07:36;;;;;;;4.10;1.03;;;;;;;14.59;66.95;98356.19;5098124;28;20487;-72
2022/09/27 11:10:21;;;;;;;5.10;1.13;;;;;;;15.29;63.43;98363.47;5098774;28;20433;-71
2022/09/27 11:13:06;;;;;;;3.80;1.00;;;;;;;14.77;64.17;98357.34;5119104;28;20500;-73
2022/09/27 11:15:38;;;;;;;2.30;0.90;;;;;;;13.69;69.76;98354.06;5118593;28;20458;-73
2022/09/27 11:18:12;;;;;;;1.53;0.80;;;;;;;14.03;70.54;98354.88;5097452;28;20448;-72
2022/09/27 11:20:46;;;;;;;5.77;1.10;;;;;;;15.49;63.34;98355.25;5098415;28;20479;-71
2022/09/27 11:23:43;;;;;;;4.23;1.30;;;;;;;15.10;66.07;98353.66;5098925;28;20459;-72
2022/09/27 11:26:19;;;;;;;3.37;0.93;;;;;;;16.22;61.92;98339.50;5093564;28;20482;-70
2022/09/27 11:28:52;;;;;;;2.77;1.20;;;;;;;15.21;65.23;98352.97;5098995;28;20451;-73
2022/09/27 11:31:26;;;;;;;3.13;1.47;;;;;;;14.73;67.16;98350.75;5096501;28;20499;-70
2022/09/27 11:34:05;;;;;;;2.30;0.70;;;;;;;13.71;69.91;98352.03;5117749;28;20499;-70
2022/09/27 11:36:45;;;;;;;3.33;1.40;;;;;;;14.03;70.44;98359.44;5118563;28;20478;-72
2022/09/27 11:39:18;;;;;;;3.00;1.17;;;;;;;14.18;70.33;98351.94;5118385;28;20957;-70
2022/09/27 11:42:06;;;;;;;3.00;0.90;;;;;;;13.87;67.77;98352.63;5118305;28;20539;-72
2022/09/27 11:44:46;;;;;;;3.23;1.13;;;;;;;14.44;65.20;98352.91;5119272;28;20492;-71
2022/09/27 11:47:17;;;;;;;1.60;0.93;;;;;;;15.65;60.84;98347.66;5116684;28;20485;-72
2022/09/27 11:50:01;;;;;;;3.03;0.90;;;;;;;16.10;58.24;98353.69;5118705;28;20427;-72
2022/09/27 11:52:39;;;;;;;1.43;0.60;;;;;;;16.05;58.58;98334.66;5118075;28;20554;-72